createdAt,value
2017-10-12T03:24:41.089Z,13.20
2017-10-12T03:27:09.360Z,13.20
2017-10-12T03:29:37.652Z,13.30
2017-10-12T03:32:05.170Z,13.20
2017-10-12T03:34:32.709Z,13.30
2017-10-12T03:37:00.220Z,13.40
2017-10-12T03:39:28.516Z,13.50
2017-10-12T03:41:56.028Z,13.50
2017-10-12T03:44:23.565Z,13.60
2017-10-12T03:46:51.076Z,13.50
2017-10-12T03:49:19.378Z,13.60
2017-10-12T03:51:46.884Z,13.60
2017-10-12T03:54:14.417Z,13.60
2017-10-12T03:56:41.933Z,13.70
2017-10-12T03:59:10.233Z,13.70
2017-10-12T04:01:37.749Z,13.70
2017-10-12T04:04:05.271Z,13.80
2017-10-12T04:06:32.796Z,13.80
2017-10-12T04:09:00.320Z,13.80
2017-10-12T04:11:27.844Z,13.90
2017-10-12T04:13:55.391Z,14.00
2017-10-12T04:16:22.917Z,14.00
2017-10-12T04:23:48.153Z,14.20
2017-10-12T04:26:16.488Z,14.20
2017-10-12T04:28:45.593Z,14.20
2017-10-12T04:31:14.265Z,14.30
2017-10-12T04:33:41.772Z,14.30
2017-10-12T06:10:26.414Z,14.40
2017-10-12T06:12:53.945Z,14.50
2017-10-12T08:59:07.061Z,19.50
2017-10-12T09:01:34.589Z,20.60
2017-10-12T09:04:03.245Z,19.20
2017-10-12T09:06:30.777Z,19.80
2017-10-12T09:08:58.290Z,19.20
2017-10-12T09:11:25.816Z,18.50
2017-10-12T09:13:53.335Z,17.60
2017-10-12T09:43:39.196Z,16.40
2017-10-12T09:46:07.473Z,16.40
2017-10-12T09:48:36.921Z,16.10
2017-10-12T09:51:05.573Z,16.00
2017-10-12T09:53:33.951Z,16.10
2017-10-12T11:22:53.161Z,18.60
2017-10-12T11:25:20.708Z,20.80
2017-10-12T13:44:16.798Z,20.00
2017-10-12T14:01:37.574Z,19.70
2017-10-12T14:04:05.853Z,19.50
2017-10-12T14:06:34.183Z,18.90
2017-10-12T14:09:01.700Z,18.90
2017-10-12T14:11:29.996Z,18.10
2017-10-12T14:43:44.729Z,18.60
2017-10-12T14:46:13.009Z,18.90
2017-10-12T14:48:41.441Z,18.40
2017-10-12T15:13:29.978Z,16.70
2017-10-12T15:16:00.173Z,16.40
2017-10-12T15:18:27.705Z,16.40
2017-10-12T15:20:55.227Z,15.90
2017-10-12T15:23:23.544Z,16.50
2017-10-12T15:33:19.833Z,16.00
2017-10-12T15:38:17.371Z,15.80
2017-10-12T15:40:45.700Z,15.70
2017-10-12T15:43:13.216Z,15.70
2017-10-12T15:45:41.508Z,15.70
2017-10-12T15:48:09.797Z,15.50
2017-10-12T15:55:35.075Z,15.40
2017-10-12T15:58:03.721Z,15.30
2017-10-12T16:00:31.244Z,15.30
2017-10-12T16:02:58.758Z,15.20
